.
WxDataArchive / Data Records for 2014-08-10
2014-08-09 August 2014 2014-08-11

Data Records for Sunday, 10 August 2014

Time	Temp	Chill	HIndex	Humid	Dewpt	 Wind 	HiWind	WindDir	Rain 	Barom
-----	----	-----	------	-----	-----	------	------	-------	-----	-----
00:00	65.8	65.8	65.8	69	55.3	0	1	90	0.00	30.041 
00:05	65.6	65.6	65.6	70	55.5	0	1	90	0.00	30.041 
00:10	65.6	65.6	65.6	71	55.9	0	1	90	0.00	30.041 
00:15	65.5	65.5	65.5	71	55.8	0	1	90	0.00	30.039 
00:20	65.5	65.5	65.5	72	56.2	0	1	90	0.00	30.039 
00:25	65.3	65.3	65.3	72	56.0	0	2	90	0.00	30.039 
00:30	65.3	65.3	65.3	72	56.0	0	1	90	0.00	30.038 
00:35	65.2	65.2	65.2	73	56.3	0	1	90	0.00	30.038 
00:40	65.2	65.2	65.2	73	56.3	0	1	90	0.00	30.038 
00:45	65.2	65.2	65.2	74	56.7	0	3	90	0.00	30.033 
00:50	65.3	65.3	65.3	75	57.2	0	2	90	0.00	30.033 
00:55	65.2	65.2	65.2	75	57.1	0	1	90	0.00	30.033 
01:00	65.2	65.2	65.2	76	57.4	0	1	90	0.00	30.032 
01:05	65.2	65.2	65.2	76	57.4	0	0	---	0.00	30.032 
01:10	65.0	65.0	65.0	77	57.6	0	1	90	0.00	30.032 
01:15	65.0	65.0	65.0	77	57.6	0	1	90	0.00	30.031 
01:20	65.0	65.0	65.0	78	58.0	0	1	90	0.00	30.031 
01:25	64.8	64.8	64.8	78	57.8	0	2	90	0.00	30.031 
01:30	64.7	64.7	64.7	79	58.0	0	1	90	0.00	30.032 
01:35	64.5	64.5	64.5	79	57.8	0	1	90	0.00	30.032 
01:40	64.3	64.3	64.3	80	58.0	0	0	---	0.00	30.032 
01:45	64.2	64.2	64.2	80	57.9	0	0	---	0.00	30.032 
01:50	64.0	64.0	64.0	80	57.7	0	0	---	0.00	30.032 
01:55	63.9	63.9	63.9	81	57.9	0	0	---	0.00	30.032 
02:00	63.9	63.9	63.9	81	57.9	0	1	90	0.00	30.030 
02:05	63.9	63.9	63.9	81	57.9	0	0	---	0.00	30.030 
02:10	63.7	63.7	63.7	81	57.8	0	0	---	0.00	30.030 
02:15	63.7	63.7	63.7	81	57.8	0	1	90	0.00	30.025 
02:20	63.7	63.7	63.7	82	58.1	0	1	90	0.00	30.025 
02:25	63.7	63.7	63.7	82	58.1	0	1	90	0.00	30.025 
02:30	63.9	63.9	63.9	82	58.3	0	1	90	0.00	30.020 
02:35	63.9	63.9	63.9	82	58.3	0	1	90	0.00	30.020 
02:40	63.9	63.9	63.9	82	58.3	0	2	90	0.00	30.020 
02:45	63.9	63.9	63.9	82	58.3	0	1	90	0.00	30.018 
02:50	63.7	63.7	63.7	82	58.1	0	2	90	0.00	30.018 
02:55	63.7	63.7	63.7	82	58.1	0	1	90	0.00	30.018 
03:00	63.7	63.7	63.7	82	58.1	0	0	---	0.00	30.017 
03:05	63.7	63.7	63.7	82	58.1	0	1	90	0.00	30.017 
03:10	63.7	63.7	63.7	82	58.1	0	2	90	0.00	30.017 
03:15	63.9	63.9	63.9	82	58.3	1	3	90	0.00	30.015 
03:20	63.9	63.9	63.9	82	58.3	0	4	90	0.00	30.015 
03:25	63.9	63.9	63.9	82	58.3	0	4	90	0.00	30.015 
03:30	63.9	63.9	63.9	82	58.3	0	2	90	0.00	30.016 
03:35	63.9	63.9	63.9	82	58.3	1	3	112	0.00	30.016 
03:40	63.9	63.9	63.9	82	58.3	0	3	112	0.00	30.016 
03:45	63.9	63.9	63.9	82	58.3	0	4	112	0.00	30.014 
03:50	63.7	63.7	63.7	83	58.4	0	2	112	0.00	30.014 
03:55	63.7	63.7	63.7	83	58.4	0	1	112	0.00	30.014 
04:00	63.5	63.5	63.5	83	58.2	0	1	112	0.00	30.013 
04:05	63.5	63.5	63.5	83	58.2	0	1	112	0.00	30.013 
04:10	63.5	63.5	63.5	84	58.6	0	2	112	0.00	30.013 
04:15	63.5	63.5	63.5	84	58.6	1	4	112	0.00	30.009 
04:20	63.7	63.7	63.7	83	58.4	1	3	112	0.00	30.009 
04:25	63.7	63.7	63.7	83	58.4	1	5	112	0.00	30.009 
04:30	63.9	63.9	63.9	83	58.6	1	3	112	0.00	30.009 
04:35	63.9	63.9	63.9	83	58.6	0	2	112	0.00	30.009 
04:40	63.9	63.9	63.9	83	58.6	0	3	112	0.00	30.009 
04:45	63.9	63.9	63.9	83	58.6	0	2	112	0.00	30.002 
04:50	63.9	63.9	63.9	83	58.6	1	4	112	0.00	30.002 
04:55	63.9	63.9	63.9	83	58.6	0	3	112	0.00	30.002 
05:00	63.9	63.9	63.9	84	59.0	1	2	112	0.00	30.001 
05:05	63.9	63.9	63.9	84	59.0	1	5	112	0.00	30.001 
05:10	63.9	63.9	63.9	84	59.0	0	4	112	0.00	30.001 
05:15	63.9	63.9	63.9	84	59.0	0	3	112	0.00	30.000 
05:20	63.7	63.7	63.7	84	58.8	1	4	112	0.00	30.000 
05:25	63.7	63.7	63.7	84	58.8	1	3	112	0.00	30.000 
05:30	63.7	63.7	63.7	84	58.8	1	3	112	0.00	29.997 
05:35	63.5	63.5	63.5	85	58.9	1	3	112	0.00	29.997 
05:40	63.5	63.5	63.5	85	58.9	0	2	112	0.00	29.997 
05:45	63.4	63.4	63.4	85	58.8	1	4	112	0.00	30.001 
05:50	63.4	63.4	63.4	85	58.8	1	3	112	0.00	30.001 
05:55	63.2	63.2	63.2	86	58.9	0	3	112	0.00	30.001 
06:00	63.2	63.2	63.2	86	58.9	0	2	112	0.00	30.005 
06:05	63.2	63.2	63.2	86	58.9	0	1	112	0.00	30.005 
06:10	63.1	63.1	63.1	87	59.2	0	1	112	0.00	30.005 
06:15	63.1	63.1	63.1	87	59.2	0	2	112	0.00	30.011 
06:20	63.1	63.1	63.1	87	59.2	1	3	112	0.00	30.011 
06:25	63.2	63.2	63.2	88	59.6	1	4	112	0.00	30.011 
06:30	63.2	63.2	63.2	88	59.6	0	2	112	0.00	30.010 
06:35	63.4	63.4	63.4	88	59.8	0	2	112	0.00	30.010 
06:40	63.4	63.4	63.4	88	59.8	0	4	112	0.00	30.010 
06:45	63.5	63.5	63.5	88	59.9	1	4	112	0.00	30.013 
06:50	63.5	63.5	63.5	88	59.9	0	4	112	0.00	30.013 
06:55	63.5	63.5	63.5	88	59.9	1	3	112	0.00	30.013 
07:00	63.7	63.7	63.7	88	60.1	1	5	112	0.00	30.015 
07:05	63.7	63.7	63.7	88	60.1	1	4	112	0.00	30.015 
07:10	63.7	63.7	63.7	88	60.1	0	3	112	0.00	30.015 
07:15	63.7	63.7	63.7	88	60.1	1	4	112	0.00	30.012 
07:20	63.9	63.9	63.9	88	60.3	1	5	90	0.00	30.012 
07:25	63.9	63.9	63.9	88	60.3	1	4	90	0.00	30.012 
07:30	63.9	63.9	63.9	88	60.3	1	4	90	0.00	30.012 
07:35	63.7	63.7	63.7	88	60.1	1	4	45	0.00	30.012 
07:40	63.7	63.7	63.7	88	60.1	1	3	90	0.00	30.012 
07:45	63.7	63.7	63.7	88	60.1	1	3	90	0.00	30.009 
07:50	63.7	63.7	63.7	88	60.1	1	4	90	0.00	30.009 
07:55	63.9	63.9	63.9	88	60.3	0	2	90	0.00	30.009 
08:00	64.0	64.0	64.0	88	60.4	1	5	112	0.00	30.021 
08:05	64.3	64.3	64.3	88	60.7	0	2	112	0.00	30.021 
08:10	64.7	64.7	64.7	88	61.1	0	2	112	0.00	30.021 
08:15	64.8	64.8	64.8	87	60.8	1	4	112	0.00	30.023 
08:20	65.3	65.3	65.3	87	61.3	1	5	90	0.00	30.023 
08:25	65.3	65.3	65.3	86	61.0	1	4	90	0.00	30.023 
08:30	65.3	65.3	65.3	87	61.3	1	3	90	0.00	30.022 
08:35	65.3	65.3	65.3	87	61.3	1	5	112	0.00	30.022 
08:40	65.8	65.8	65.8	87	61.8	0	2	45	0.00	30.022 
08:45	66.3	66.3	66.3	86	62.0	1	5	90	0.00	30.031 
08:50	66.4	66.4	66.4	85	61.7	1	4	90	0.00	30.031 
08:55	66.6	66.6	66.6	85	61.9	1	4	90	0.00	30.031 
09:00	67.1	67.1	67.1	85	62.4	1	4	90	0.00	30.030 
09:05	67.3	67.3	67.3	84	62.3	1	4	90	0.00	30.030 
09:10	67.4	67.4	67.4	83	62.0	1	3	90	0.00	30.030 
09:15	67.4	67.4	67.4	84	62.4	2	5	90	0.00	30.035 
09:20	67.6	67.6	67.6	84	62.6	1	4	90	0.00	30.035 
09:25	67.8	67.8	67.8	84	62.8	1	3	68	0.00	30.035 
09:30	68.1	68.1	68.1	84	63.1	1	5	90	0.00	30.034 
09:35	68.8	68.8	68.8	83	63.4	1	4	90	0.00	30.034 
09:40	69.3	69.3	69.3	81	63.2	2	5	90	0.00	30.034 
09:45	69.6	69.6	69.6	81	63.5	2	5	90	0.00	30.035 
09:50	69.8	69.8	69.8	81	63.7	1	4	112	0.00	30.035 
09:55	69.9	69.9	69.9	81	63.8	2	6	68	0.00	30.035 
10:00	70.1	70.1	70.1	81	64.0	1	4	90	0.00	30.031 
10:05	70.4	70.4	70.4	80	63.9	2	6	90	0.00	30.031 
10:10	70.6	70.6	70.6	80	64.1	2	4	90	0.00	30.031 
10:15	70.9	70.9	70.9	80	64.4	1	4	90	0.00	30.028 
10:20	71.3	71.3	71.3	79	64.4	1	4	90	0.00	30.028 
10:25	71.5	71.5	71.5	78	64.3	2	5	90	0.00	30.028 
10:30	71.5	71.5	71.5	79	64.6	1	4	90	0.00	30.024 
10:35	71.5	71.5	71.5	80	65.0	2	5	90	0.00	30.024 
10:40	71.8	71.8	71.8	79	64.9	1	3	90	0.00	30.024 
10:45	72.1	72.1	72.1	79	65.2	1	3	90	0.00	30.020 
10:50	72.7	72.7	72.7	78	65.4	0	2	90	0.00	30.020 
10:55	73.5	73.5	73.5	77	65.8	1	5	68	0.00	30.020 
11:00	74.2	74.2	74.2	75	65.8	1	5	90	0.00	30.017 
11:05	75.3	75.3	76.6	74	66.4	1	4	68	0.00	30.017 
11:10	76.1	76.1	77.6	73	66.8	1	3	68	0.00	30.017 
11:15	76.5	76.5	78.1	73	67.2	1	5	90	0.00	30.014 
11:20	76.8	76.8	78.5	72	67.1	1	3	90	0.00	30.014 
11:25	77.2	77.2	79.0	71	67.0	1	3	90	0.00	30.014 
11:30	77.6	77.6	79.5	71	67.4	1	4	90	0.00	30.013 
11:35	77.9	77.9	79.9	71	67.7	1	6	90	0.00	30.013 
11:40	78.5	78.5	80.7	70	67.9	1	5	90	0.00	30.013 
11:45	78.6	78.6	80.9	71	68.4	1	4	90	0.00	30.011 
11:50	79.2	79.2	81.6	69	68.1	1	3	90	0.00	30.011 
11:55	79.8	79.8	82.4	68	68.3	1	5	90	0.00	30.011 
12:00	79.9	79.9	82.5	67	67.9	2	6	90	0.00	30.007 
12:05	80.3	80.3	83.2	68	68.8	1	5	90	0.00	30.007 
12:10	80.5	80.5	83.3	67	68.5	2	6	68	0.00	30.007 
12:15	80.5	80.5	83.3	67	68.5	2	5	90	0.00	30.002 
12:20	80.7	80.7	83.5	66	68.3	1	4	90	0.00	30.002 
12:25	81.1	81.1	84.1	66	68.6	1	5	90	0.00	30.002 
12:30	81.4	81.4	84.6	66	68.9	2	6	90	0.00	30.005 
12:35	81.4	81.4	84.3	64	68.0	2	4	112	0.00	30.005 
12:40	81.4	81.4	84.8	67	69.4	1	4	90	0.00	30.005 
12:45	81.6	81.6	84.7	65	68.7	2	4	90	0.00	29.998 
12:50	81.4	81.4	84.4	65	68.5	3	6	90	0.00	29.998 
12:55	81.4	81.4	84.4	65	68.5	3	9	90	0.00	29.998 
13:00	81.8	81.8	85.1	65	68.9	2	5	68	0.00	29.996 
13:05	82.4	82.4	85.6	63	68.5	2	5	90	0.00	29.996 
13:10	82.6	82.6	85.9	63	68.7	2	4	90	0.00	29.996 
13:15	83.2	83.2	86.9	63	69.3	0	3	90	0.00	29.995 
13:20	83.4	83.4	86.5	60	68.0	2	5	68	0.00	29.995 
13:25	83.8	83.8	87.2	60	68.4	1	5	68	0.00	29.995 
13:30	83.8	83.8	86.9	59	67.9	2	5	68	0.00	29.991 
13:35	84.1	84.1	88.0	61	69.2	1	4	90	0.00	29.991 
13:40	84.1	84.1	86.4	55	66.2	3	9	90	0.00	29.991 
13:45	84.1	84.1	86.9	57	67.2	1	5	90	0.00	29.990 
13:50	84.3	84.3	87.0	56	66.9	2	5	90	0.00	29.990 
13:55	84.1	84.1	86.7	56	66.7	2	4	68	0.00	29.990 
14:00	84.1	84.1	87.2	58	67.7	2	5	68	0.00	29.983 
14:05	84.7	84.7	87.9	57	67.7	1	4	90	0.00	29.983 
14:10	84.5	84.5	87.3	56	67.0	1	6	90	0.00	29.983 
14:15	84.5	84.5	87.3	56	67.0	1	3	90	0.00	29.980 
14:20	84.7	84.7	87.3	55	66.7	2	6	90	0.00	29.980 
14:25	84.7	84.7	87.3	55	66.7	3	6	90	0.00	29.980 
14:30	84.9	84.9	87.3	54	66.4	1	3	90	0.00	29.979 
14:35	85.3	85.3	87.7	53	66.2	1	4	135	0.00	29.979 
14:40	85.7	85.7	88.6	54	67.1	2	5	90	0.00	29.979 
14:45	85.9	85.9	89.2	55	67.8	2	5	90	0.00	29.974 
14:50	85.9	85.9	88.6	53	66.7	2	5	68	0.00	29.974 
14:55	85.9	85.9	88.6	53	66.7	1	5	90	0.00	29.974 
15:00	86.1	86.1	89.2	54	67.5	1	5	90	0.00	29.968 
15:05	86.5	86.5	89.9	54	67.8	1	4	90	0.00	29.968 
15:10	86.5	86.5	89.6	53	67.3	2	6	68	0.00	29.968 
15:15	86.5	86.5	89.3	52	66.7	0	1	68	0.00	29.963 
15:20	86.7	86.7	89.9	53	67.5	2	6	68	0.00	29.963 
15:25	86.7	86.7	89.6	52	66.9	1	3	68	0.00	29.963 
15:30	86.5	86.5	88.9	51	66.2	1	5	90	0.00	29.960 
15:35	87.0	87.0	90.1	52	67.2	1	4	90	0.00	29.960 
15:40	86.7	86.7	88.9	50	65.8	2	7	90	0.00	29.960 
15:45	86.5	86.5	88.6	50	65.6	2	4	90	0.00	29.952 
15:50	86.5	86.5	89.6	53	67.3	2	5	90	0.00	29.952 
15:55	86.3	86.3	88.6	51	66.0	1	4	90	0.00	29.952 
16:00	86.5	86.5	87.5	46	63.2	1	5	90	0.00	29.949 
16:05	86.7	86.7	88.3	48	64.6	1	3	90	0.00	29.949 
16:10	87.0	87.0	89.1	49	65.5	1	4	90	0.00	29.949 
16:15	87.2	87.2	89.7	50	66.3	1	4	90	0.00	29.947 
16:20	87.4	87.4	89.7	49	65.9	1	6	90	0.00	29.947 
16:25	87.0	87.0	89.4	50	66.1	2	6	45	0.00	29.947 
16:30	87.0	87.0	89.7	51	66.6	1	3	112	0.00	29.943 
16:35	86.7	86.7	88.9	50	65.8	1	7	90	0.00	29.943 
16:40	86.7	86.7	88.9	50	65.8	2	6	90	0.00	29.943 
16:45	86.5	86.5	88.6	50	65.6	1	5	90	0.00	29.937 
16:50	86.5	86.5	88.9	51	66.2	1	4	90	0.00	29.937 
16:55	86.7	86.7	88.9	50	65.8	2	5	90	0.00	29.937 
17:00	86.5	86.5	88.6	50	65.6	1	5	90	0.00	29.933 
17:05	86.7	86.7	88.6	49	65.2	1	3	90	0.00	29.933 
17:10	86.7	86.7	88.6	49	65.2	1	3	112	0.00	29.933 
17:15	87.0	87.0	89.1	49	65.5	0	3	112	0.00	29.933 
17:20	86.7	86.7	88.9	50	65.8	1	6	68	0.00	29.933 
17:25	86.3	86.3	88.6	51	66.0	1	4	68	0.00	29.933 
17:30	85.9	85.9	88.3	52	66.2	1	4	68	0.00	29.933 
17:35	85.9	85.9	87.7	50	65.1	1	4	68	0.00	29.933 
17:40	85.9	85.9	87.7	50	65.1	1	4	112	0.00	29.933 
17:45	85.7	85.7	87.7	51	65.5	1	4	112	0.00	29.934 
17:50	85.3	85.3	86.9	50	64.5	1	2	68	0.00	29.934 
17:55	85.3	85.3	86.9	50	64.5	0	2	68	0.00	29.934 
18:00	85.3	85.3	87.1	51	65.1	1	3	225	0.00	29.932 
18:05	85.1	85.1	87.1	52	65.5	0	2	248	0.00	29.932 
18:10	85.1	85.1	86.9	51	64.9	0	2	248	0.00	29.932 
18:15	84.9	84.9	86.6	51	64.7	2	6	248	0.00	29.931 
18:20	84.7	84.7	86.5	52	65.1	1	4	68	0.00	29.931 
18:25	84.5	84.5	86.0	51	64.4	1	5	68	0.00	29.931 
18:30	84.3	84.3	85.7	51	64.2	1	4	68	0.00	29.929 
18:35	84.3	84.3	86.0	52	64.7	0	2	68	0.00	29.929 
18:40	84.1	84.1	85.7	52	64.5	1	2	68	0.00	29.929 
18:45	84.1	84.1	85.7	52	64.5	1	4	90	0.00	29.918 
18:50	84.0	84.0	85.8	53	65.0	1	5	90	0.00	29.918 
18:55	84.0	84.0	86.0	54	65.5	0	3	90	0.00	29.918 
19:00	83.6	83.6	85.5	54	65.2	2	4	90	0.00	29.917 
19:05	83.4	83.4	85.4	55	65.5	0	2	68	0.00	29.917 
19:10	83.2	83.2	85.1	55	65.3	0	2	68	0.00	29.917 
19:15	83.0	83.0	84.9	55	65.1	0	1	68	0.00	29.918 
19:20	83.0	83.0	84.9	55	65.1	0	1	68	0.00	29.918 
19:25	82.8	82.8	84.6	55	65.0	1	3	68	0.00	29.918 
19:30	82.8	82.8	84.6	55	65.0	0	3	68	0.00	29.917 
19:35	82.6	82.6	84.3	55	64.8	0	1	68	0.00	29.917 
19:40	82.4	82.4	84.2	56	65.1	0	2	68	0.00	29.917 
19:45	82.2	82.2	84.2	57	65.4	0	1	68	0.00	29.916 
19:50	81.8	81.8	83.6	57	65.0	0	1	68	0.00	29.916 
19:55	81.8	81.8	83.8	58	65.6	0	1	68	0.00	29.916 
20:00	81.6	81.6	83.5	58	65.4	0	1	68	0.00	29.909 
20:05	81.4	81.4	83.3	58	65.2	0	1	68	0.00	29.909 
20:10	81.2	81.2	83.2	59	65.5	0	0	---	0.00	29.909 
20:15	81.1	81.1	83.2	60	65.9	0	1	68	0.00	29.908 
20:20	80.9	80.9	82.9	60	65.7	0	1	68	0.00	29.908 
20:25	80.5	80.5	82.5	61	65.8	0	1	68	0.00	29.908 
20:30	80.3	80.3	82.3	61	65.6	0	1	68	0.00	29.908 
20:35	80.1	80.1	82.2	62	65.9	0	1	68	0.00	29.908 
20:40	79.9	79.9	81.9	62	65.7	0	1	68	0.00	29.908 
20:45	79.8	79.8	81.8	62	65.6	0	1	68	0.00	29.905 
20:50	79.6	79.6	81.6	63	65.9	0	1	68	0.00	29.905 
20:55	79.2	79.2	81.1	63	65.5	0	0	---	0.00	29.905 
21:00	78.8	78.8	80.7	63	65.1	0	1	68	0.00	29.908 
21:05	78.6	78.6	80.5	64	65.4	0	1	68	0.00	29.908 
21:10	78.5	78.5	80.4	65	65.7	0	1	68	0.00	29.908 
21:15	78.1	78.1	80.0	65	65.4	0	2	68	0.00	29.909 
21:20	78.1	78.1	80.0	66	65.8	0	1	68	0.00	29.909 
21:25	77.7	77.7	79.6	66	65.4	0	1	68	0.00	29.909 
21:30	77.6	77.6	79.5	67	65.8	0	3	68	0.00	29.917 
21:35	77.4	77.4	79.2	67	65.6	0	1	68	0.00	29.917 
21:40	77.0	77.0	78.8	67	65.2	0	3	68	0.00	29.917 
21:45	76.8	76.8	78.6	68	65.4	0	2	68	0.00	29.923 
21:50	76.7	76.7	78.5	68	65.3	0	2	68	0.00	29.923 
21:55	76.5	76.5	78.3	68	65.1	0	3	68	0.00	29.923 
22:00	76.5	76.5	78.2	69	65.6	1	4	68	0.00	29.933 
22:05	76.3	76.3	78.0	69	65.4	0	2	68	0.00	29.933 
22:10	76.3	76.3	78.0	69	65.4	0	1	68	0.00	29.933 
22:15	76.1	76.1	77.8	69	65.2	1	4	68	0.00	29.927 
22:20	76.1	76.1	77.8	70	65.6	0	2	68	0.00	29.927 
22:25	76.0	76.0	77.7	70	65.5	1	3	68	0.00	29.927 
22:30	75.8	75.8	77.4	70	65.3	1	2	68	0.00	29.923 
22:35	75.6	75.6	77.2	71	65.5	0	3	68	0.00	29.923 
22:40	75.4	75.4	77.0	71	65.3	1	5	68	0.00	29.923 
22:45	75.3	75.3	76.8	72	65.6	1	3	68	0.00	29.918 
22:50	75.3	75.3	76.8	72	65.6	2	4	68	0.00	29.918 
22:55	75.1	75.1	76.5	73	65.8	1	6	68	0.00	29.918 
23:00	75.1	75.1	76.4	74	66.2	1	3	90	0.00	29.917 
23:05	74.9	74.9	74.9	75	66.4	1	5	90	0.00	29.917 
23:10	74.9	74.9	74.9	76	66.8	1	4	90	0.00	29.917 
23:15	74.7	74.7	74.7	77	67.0	2	5	90	0.00	29.916 
23:20	74.7	74.7	74.7	77	67.0	1	5	90	0.00	29.916 
23:25	74.6	74.6	74.6	77	66.9	1	3	90	0.00	29.916 
23:30	74.6	74.6	74.6	78	67.3	1	3	90	0.00	29.925 
23:35	74.4	74.4	74.4	78	67.1	2	4	90	0.00	29.925 
23:40	74.4	74.4	74.4	78	67.1	1	3	68	0.00	29.925 
23:45	74.4	74.4	74.4	79	67.4	2	4	68	0.00	29.926 
23:50	74.2	74.2	74.2	80	67.6	1	4	68	0.00	29.926 
23:55	74.0	74.0	74.0	80	67.4	1	4	68	0.00	29.926 

CoCoRaHS
IN-AL-39
A2 Web Hosting
Creative Commons License
GoDaddy
search engine by freefind advanced

loaded 2018-11-12 15:23:43 • last modified 2010-11-18 10:43:29
Privacy PolicyDisclaimer
• wx.awcolley.com is powered by PmWiki v.2002016 •
• all content (unless otherwise noted) © 2018 A W Colley